sensor_id;sensor_type;location;lat;lon;timestamp;P1;durP1;ratioP1;P2;durP2;ratioP2
16093;SDS011;8151;47.824;12.092;2022-07-04T00:00:29;1.87;;;1.73;;
16093;SDS011;8151;47.824;12.092;2022-07-04T00:02:57;2.67;;;2.07;;
16093;SDS011;8151;47.824;12.092;2022-07-04T00:05:28;3.13;;;2.03;;
16093;SDS011;8151;47.824;12.092;2022-07-04T00:07:57;2.20;;;2.00;;
16093;SDS011;8151;47.824;12.092;2022-07-04T00:10:25;2.13;;;1.93;;
16093;SDS011;8151;47.824;12.092;2022-07-04T00:12:54;6.47;;;2.00;;
16093;SDS011;8151;47.824;12.092;2022-07-04T00:15:23;2.23;;;2.00;;
16093;SDS011;8151;47.824;12.092;2022-07-04T00:17:52;2.00;;;1.90;;
16093;SDS011;8151;47.824;12.092;2022-07-04T00:20:20;3.53;;;2.13;;
16093;SDS011;8151;47.824;12.092;2022-07-04T00:22:50;4.03;;;1.93;;
16093;SDS011;8151;47.824;12.092;2022-07-04T00:25:19;3.90;;;2.33;;
16093;SDS011;8151;47.824;12.092;2022-07-04T00:27:47;2.87;;;2.33;;
16093;SDS011;8151;47.824;12.092;2022-07-04T00:30:16;2.50;;;2.30;;
16093;SDS011;8151;47.824;12.092;2022-07-04T00:32:44;6.73;;;2.10;;
16093;SDS011;8151;47.824;12.092;2022-07-04T00:35:13;1.90;;;1.80;;
16093;SDS011;8151;47.824;12.092;2022-07-04T00:37:41;2.40;;;2.07;;
16093;SDS011;8151;47.824;12.092;2022-07-04T00:40:12;2.80;;;2.00;;
16093;SDS011;8151;47.824;12.092;2022-07-04T00:42:40;3.67;;;2.30;;
16093;SDS011;8151;47.824;12.092;2022-07-04T00:45:09;1.97;;;1.80;;
16093;SDS011;8151;47.824;12.092;2022-07-04T00:47:38;2.30;;;1.87;;
16093;SDS011;8151;47.824;12.092;2022-07-04T00:50:07;5.10;;;1.67;;
16093;SDS011;8151;47.824;12.092;2022-07-04T00:52:37;3.33;;;1.70;;
16093;SDS011;8151;47.824;12.092;2022-07-04T00:55:06;2.03;;;1.80;;
16093;SDS011;8151;47.824;12.092;2022-07-04T00:57:39;1.90;;;1.50;;
16093;SDS011;8151;47.824;12.092;2022-07-04T01:00:08;1.67;;;1.50;;
16093;SDS011;8151;47.824;12.092;2022-07-04T01:02:37;2.03;;;1.80;;
16093;SDS011;8151;47.824;12.092;2022-07-04T01:05:06;1.67;;;1.53;;
16093;SDS011;8151;47.824;12.092;2022-07-04T01:07:35;4.80;;;1.70;;
16093;SDS011;8151;47.824;12.092;2022-07-04T01:10:04;1.63;;;1.53;;
16093;SDS011;8151;47.824;12.092;2022-07-04T01:12:34;3.13;;;1.70;;
16093;SDS011;8151;47.824;12.092;2022-07-04T01:15:06;4.00;;;1.77;;
16093;SDS011;8151;47.824;12.092;2022-07-04T01:17:35;2.10;;;1.90;;
16093;SDS011;8151;47.824;12.092;2022-07-04T01:20:04;2.30;;;1.97;;
16093;SDS011;8151;47.824;12.092;2022-07-04T01:22:35;1.93;;;1.60;;
16093;SDS011;8151;47.824;12.092;2022-07-04T01:25:04;2.30;;;2.10;;
16093;SDS011;8151;47.824;12.092;2022-07-04T01:27:33;1.80;;;1.70;;
16093;SDS011;8151;47.824;12.092;2022-07-04T01:30:02;3.80;;;1.87;;
16093;SDS011;8151;47.824;12.092;2022-07-04T01:32:30;3.03;;;1.70;;
16093;SDS011;8151;47.824;12.092;2022-07-04T01:34:59;8.80;;;1.83;;
16093;SDS011;8151;47.824;12.092;2022-07-04T01:37:27;2.93;;;1.80;;
16093;SDS011;8151;47.824;12.092;2022-07-04T01:39:57;3.60;;;2.10;;
16093;SDS011;8151;47.824;12.092;2022-07-04T01:42:26;2.93;;;1.70;;
16093;SDS011;8151;47.824;12.092;2022-07-04T01:44:54;1.93;;;1.70;;
16093;SDS011;8151;47.824;12.092;2022-07-04T01:47:23;4.63;;;1.83;;
16093;SDS011;8151;47.824;12.092;2022-07-04T01:49:52;2.07;;;1.87;;
16093;SDS011;8151;47.824;12.092;2022-07-04T01:52:20;2.70;;;2.07;;
16093;SDS011;8151;47.824;12.092;2022-07-04T01:54:49;2.80;;;2.00;;
16093;SDS011;8151;47.824;12.092;2022-07-04T01:57:19;5.93;;;2.10;;
16093;SDS011;8151;47.824;12.092;2022-07-04T01:59:47;3.17;;;2.07;;
16093;SDS011;8151;47.824;12.092;2022-07-04T02:02:33;2.97;;;1.60;;
16093;SDS011;8151;47.824;12.092;2022-07-04T02:05:02;2.13;;;1.80;;
16093;SDS011;8151;47.824;12.092;2022-07-04T02:07:31;3.50;;;1.90;;
16093;SDS011;8151;47.824;12.092;2022-07-04T02:09:59;5.67;;;2.30;;
16093;SDS011;8151;47.824;12.092;2022-07-04T02:12:29;2.33;;;2.03;;
16093;SDS011;8151;47.824;12.092;2022-07-04T02:15:17;2.20;;;1.93;;
16093;SDS011;8151;47.824;12.092;2022-07-04T02:17:45;2.30;;;2.10;;
16093;SDS011;8151;47.824;12.092;2022-07-04T02:20:14;2.10;;;1.97;;
16093;SDS011;8151;47.824;12.092;2022-07-04T02:22:43;4.80;;;2.33;;
16093;SDS011;8151;47.824;12.092;2022-07-04T02:25:11;4.40;;;2.20;;
16093;SDS011;8151;47.824;12.092;2022-07-04T02:27:41;4.70;;;1.93;;
16093;SDS011;8151;47.824;12.092;2022-07-04T02:30:10;2.20;;;2.03;;
16093;SDS011;8151;47.824;12.092;2022-07-04T02:32:41;2.10;;;2.00;;
16093;SDS011;8151;47.824;12.092;2022-07-04T02:35:09;5.07;;;2.33;;
16093;SDS011;8151;47.824;12.092;2022-07-04T02:37:38;3.23;;;2.17;;
16093;SDS011;8151;47.824;12.092;2022-07-04T02:40:07;2.10;;;1.90;;
16093;SDS011;8151;47.824;12.092;2022-07-04T02:42:37;3.57;;;2.07;;
16093;SDS011;8151;47.824;12.092;2022-07-04T02:45:07;3.03;;;2.03;;
16093;SDS011;8151;47.824;12.092;2022-07-04T02:47:36;4.40;;;2.60;;
16093;SDS011;8151;47.824;12.092;2022-07-04T02:50:05;3.03;;;2.00;;
16093;SDS011;8151;47.824;12.092;2022-07-04T02:52:34;3.83;;;2.40;;
16093;SDS011;8151;47.824;12.092;2022-07-04T02:55:03;2.93;;;2.20;;
16093;SDS011;8151;47.824;12.092;2022-07-04T02:57:32;3.63;;;2.40;;
16093;SDS011;8151;47.824;12.092;2022-07-04T03:00:04;2.67;;;2.00;;
16093;SDS011;8151;47.824;12.092;2022-07-04T03:02:36;4.67;;;2.00;;
16093;SDS011;8151;47.824;12.092;2022-07-04T03:05:04;1.90;;;1.80;;
16093;SDS011;8151;47.824;12.092;2022-07-04T03:07:33;2.63;;;1.87;;
16093;SDS011;8151;47.824;12.092;2022-07-04T03:10:02;3.33;;;2.20;;
16093;SDS011;8151;47.824;12.092;2022-07-04T03:12:31;3.70;;;2.27;;
16093;SDS011;8151;47.824;12.092;2022-07-04T03:15:00;2.20;;;2.00;;
16093;SDS011;8151;47.824;12.092;2022-07-04T03:17:30;5.63;;;2.30;;
16093;SDS011;8151;47.824;12.092;2022-07-04T03:19:58;3.53;;;2.10;;
16093;SDS011;8151;47.824;12.092;2022-07-04T03:22:27;3.83;;;2.30;;
16093;SDS011;8151;47.824;12.092;2022-07-04T03:24:55;2.20;;;2.00;;
16093;SDS011;8151;47.824;12.092;2022-07-04T03:27:24;2.00;;;1.90;;
16093;SDS011;8151;47.824;12.092;2022-07-04T03:29:52;2.17;;;1.80;;
16093;SDS011;8151;47.824;12.092;2022-07-04T03:32:21;3.97;;;2.00;;
16093;SDS011;8151;47.824;12.092;2022-07-04T03:34:51;2.07;;;1.87;;
16093;SDS011;8151;47.824;12.092;2022-07-04T03:37:19;3.90;;;2.37;;
16093;SDS011;8151;47.824;12.092;2022-07-04T03:39:48;4.20;;;1.90;;
16093;SDS011;8151;47.824;12.092;2022-07-04T03:42:17;2.40;;;1.97;;
16093;SDS011;8151;47.824;12.092;2022-07-04T03:44:45;2.47;;;2.27;;
16093;SDS011;8151;47.824;12.092;2022-07-04T03:47:14;2.20;;;2.10;;
16093;SDS011;8151;47.824;12.092;2022-07-04T03:49:43;3.43;;;2.03;;
16093;SDS011;8151;47.824;12.092;2022-07-04T03:52:13;3.07;;;2.10;;
16093;SDS011;8151;47.824;12.092;2022-07-04T03:54:41;1.90;;;1.80;;
16093;SDS011;8151;47.824;12.092;2022-07-04T03:57:11;2.17;;;1.97;;
16093;SDS011;8151;47.824;12.092;2022-07-04T03:59:40;2.33;;;2.00;;
16093;SDS011;8151;47.824;12.092;2022-07-04T04:02:08;4.40;;;1.93;;
16093;SDS011;8151;47.824;12.092;2022-07-04T04:04:37;2.20;;;1.90;;
16093;SDS011;8151;47.824;12.092;2022-07-04T04:07:24;5.17;;;2.20;;
16093;SDS011;8151;47.824;12.092;2022-07-04T04:09:53;1.70;;;1.53;;
16093;SDS011;8151;47.824;12.092;2022-07-04T04:12:21;2.07;;;1.97;;
16093;SDS011;8151;47.824;12.092;2022-07-04T04:14:50;1.80;;;1.70;;
16093;SDS011;8151;47.824;12.092;2022-07-04T04:17:18;4.50;;;2.10;;
16093;SDS011;8151;47.824;12.092;2022-07-04T04:19:47;6.03;;;1.97;;
16093;SDS011;8151;47.824;12.092;2022-07-04T04:22:15;3.17;;;1.70;;
16093;SDS011;8151;47.824;12.092;2022-07-04T04:24:45;1.73;;;1.63;;
16093;SDS011;8151;47.824;12.092;2022-07-04T04:27:14;3.20;;;1.83;;
16093;SDS011;8151;47.824;12.092;2022-07-04T04:29:42;3.43;;;1.83;;
16093;SDS011;8151;47.824;12.092;2022-07-04T04:32:11;1.90;;;1.80;;
16093;SDS011;8151;47.824;12.092;2022-07-04T04:34:39;2.13;;;2.00;;
16093;SDS011;8151;47.824;12.092;2022-07-04T04:37:08;4.20;;;2.03;;
16093;SDS011;8151;47.824;12.092;2022-07-04T04:39:37;1.90;;;1.80;;
16093;SDS011;8151;47.824;12.092;2022-07-04T04:42:07;2.77;;;1.80;;
16093;SDS011;8151;47.824;12.092;2022-07-04T04:44:36;2.10;;;1.90;;
16093;SDS011;8151;47.824;12.092;2022-07-04T04:47:05;2.00;;;1.77;;
16093;SDS011;8151;47.824;12.092;2022-07-04T04:49:33;3.73;;;1.80;;
16093;SDS011;8151;47.824;12.092;2022-07-04T04:52:02;4.57;;;1.80;;
16093;SDS011;8151;47.824;12.092;2022-07-04T04:54:32;5.30;;;2.07;;
16093;SDS011;8151;47.824;12.092;2022-07-04T04:57:01;3.17;;;1.80;;
16093;SDS011;8151;47.824;12.092;2022-07-04T04:59:32;3.90;;;1.90;;
16093;SDS011;8151;47.824;12.092;2022-07-04T05:02:01;1.93;;;1.83;;
16093;SDS011;8151;47.824;12.092;2022-07-04T05:04:30;2.17;;;1.90;;
16093;SDS011;8151;47.824;12.092;2022-07-04T05:06:58;2.13;;;1.90;;
16093;SDS011;8151;47.824;12.092;2022-07-04T05:09:27;1.90;;;1.80;;
16093;SDS011;8151;47.824;12.092;2022-07-04T05:11:55;2.23;;;1.73;;
16093;SDS011;8151;47.824;12.092;2022-07-04T05:14:24;1.87;;;1.67;;
16093;SDS011;8151;47.824;12.092;2022-07-04T05:16:54;4.77;;;1.80;;
16093;SDS011;8151;47.824;12.092;2022-07-04T05:19:23;2.73;;;1.77;;
16093;SDS011;8151;47.824;12.092;2022-07-04T05:21:52;2.20;;;2.00;;
16093;SDS011;8151;47.824;12.092;2022-07-04T05:24:20;5.07;;;2.13;;
16093;SDS011;8151;47.824;12.092;2022-07-04T05:26:49;2.30;;;2.10;;
16093;SDS011;8151;47.824;12.092;2022-07-04T05:29:23;2.10;;;1.93;;
16093;SDS011;8151;47.824;12.092;2022-07-04T05:31:52;4.03;;;2.30;;
16093;SDS011;8151;47.824;12.092;2022-07-04T05:34:22;1.97;;;1.87;;
16093;SDS011;8151;47.824;12.092;2022-07-04T05:36:50;2.43;;;1.90;;
16093;SDS011;8151;47.824;12.092;2022-07-04T05:39:19;4.47;;;2.00;;
16093;SDS011;8151;47.824;12.092;2022-07-04T05:41:47;2.00;;;1.90;;
16093;SDS011;8151;47.824;12.092;2022-07-04T05:44:16;1.90;;;1.70;;
16093;SDS011;8151;47.824;12.092;2022-07-04T05:46:44;2.50;;;2.07;;
16093;SDS011;8151;47.824;12.092;2022-07-04T05:49:13;2.40;;;1.97;;
16093;SDS011;8151;47.824;12.092;2022-07-04T05:51:43;2.30;;;2.10;;
16093;SDS011;8151;47.824;12.092;2022-07-04T05:54:13;6.70;;;2.40;;
16093;SDS011;8151;47.824;12.092;2022-07-04T05:56:41;4.97;;;2.20;;
16093;SDS011;8151;47.824;12.092;2022-07-04T05:59:10;2.20;;;2.00;;
16093;SDS011;8151;47.824;12.092;2022-07-04T06:01:38;3.37;;;2.03;;
16093;SDS011;8151;47.824;12.092;2022-07-04T06:04:07;3.33;;;2.03;;
16093;SDS011;8151;47.824;12.092;2022-07-04T06:06:36;2.30;;;2.10;;
16093;SDS011;8151;47.824;12.092;2022-07-04T06:09:06;2.17;;;2.00;;
16093;SDS011;8151;47.824;12.092;2022-07-04T06:11:41;6.17;;;2.00;;
16093;SDS011;8151;47.824;12.092;2022-07-04T06:14:09;2.40;;;2.20;;
16093;SDS011;8151;47.824;12.092;2022-07-04T06:16:39;2.40;;;2.20;;
16093;SDS011;8151;47.824;12.092;2022-07-04T06:19:07;2.80;;;2.37;;
16093;SDS011;8151;47.824;12.092;2022-07-04T06:21:36;2.30;;;2.10;;
16093;SDS011;8151;47.824;12.092;2022-07-04T06:24:06;2.40;;;2.20;;
16093;SDS011;8151;47.824;12.092;2022-07-04T06:26:35;2.07;;;1.87;;
16093;SDS011;8151;47.824;12.092;2022-07-04T06:29:04;2.03;;;1.80;;
16093;SDS011;8151;47.824;12.092;2022-07-04T06:31:33;2.87;;;1.80;;
16093;SDS011;8151;47.824;12.092;2022-07-04T06:34:01;2.13;;;1.77;;
16093;SDS011;8151;47.824;12.092;2022-07-04T06:36:47;2.13;;;1.97;;
16093;SDS011;8151;47.824;12.092;2022-07-04T06:39:17;1.80;;;1.70;;
16093;SDS011;8151;47.824;12.092;2022-07-04T06:41:46;2.47;;;1.93;;
16093;SDS011;8151;47.824;12.092;2022-07-04T06:44:15;2.57;;;1.70;;
16093;SDS011;8151;47.824;12.092;2022-07-04T06:46:43;1.97;;;1.53;;
16093;SDS011;8151;47.824;12.092;2022-07-04T06:49:12;1.80;;;1.70;;
16093;SDS011;8151;47.824;12.092;2022-07-04T06:51:41;1.73;;;1.43;;
16093;SDS011;8151;47.824;12.092;2022-07-04T06:54:10;2.97;;;1.90;;
16093;SDS011;8151;47.824;12.092;2022-07-04T06:56:43;2.00;;;1.80;;
16093;SDS011;8151;47.824;12.092;2022-07-04T06:59:12;2.20;;;1.77;;
16093;SDS011;8151;47.824;12.092;2022-07-04T07:01:40;1.97;;;1.63;;
16093;SDS011;8151;47.824;12.092;2022-07-04T07:04:09;4.67;;;1.67;;
16093;SDS011;8151;47.824;12.092;2022-07-04T07:06:38;6.20;;;1.50;;
16093;SDS011;8151;47.824;12.092;2022-07-04T07:09:06;3.03;;;1.80;;
16093;SDS011;8151;47.824;12.092;2022-07-04T07:11:35;2.50;;;1.60;;
16093;SDS011;8151;47.824;12.092;2022-07-04T07:14:05;4.43;;;1.67;;
16093;SDS011;8151;47.824;12.092;2022-07-04T07:16:33;3.87;;;1.20;;
16093;SDS011;8151;47.824;12.092;2022-07-04T07:19:02;1.30;;;1.20;;
16093;SDS011;8151;47.824;12.092;2022-07-04T07:21:31;1.50;;;1.40;;
16093;SDS011;8151;47.824;12.092;2022-07-04T07:23:59;1.30;;;1.20;;
16093;SDS011;8151;47.824;12.092;2022-07-04T07:26:30;1.17;;;1.10;;
16093;SDS011;8151;47.824;12.092;2022-07-04T07:28:59;2.47;;;1.27;;
16093;SDS011;8151;47.824;12.092;2022-07-04T07:31:29;1.23;;;1.13;;
16093;SDS011;8151;47.824;12.092;2022-07-04T07:33:57;1.57;;;1.37;;
16093;SDS011;8151;47.824;12.092;2022-07-04T07:36:26;1.87;;;1.13;;
16093;SDS011;8151;47.824;12.092;2022-07-04T07:38:55;1.10;;;1.10;;
16093;SDS011;8151;47.824;12.092;2022-07-04T07:41:23;5.40;;;1.37;;
16093;SDS011;8151;47.824;12.092;2022-07-04T07:43:52;1.07;;;0.97;;
16093;SDS011;8151;47.824;12.092;2022-07-04T07:46:21;2.70;;;1.43;;
16093;SDS011;8151;47.824;12.092;2022-07-04T07:48:51;1.40;;;1.30;;
16093;SDS011;8151;47.824;12.092;2022-07-04T07:51:20;2.30;;;1.00;;
16093;SDS011;8151;47.824;12.092;2022-07-04T07:53:49;1.23;;;1.17;;
16093;SDS011;8151;47.824;12.092;2022-07-04T07:56:37;1.80;;;1.23;;
16093;SDS011;8151;47.824;12.092;2022-07-04T07:59:06;5.43;;;1.37;;
16093;SDS011;8151;47.824;12.092;2022-07-04T08:01:34;1.60;;;1.30;;
16093;SDS011;8151;47.824;12.092;2022-07-04T08:04:04;2.30;;;1.13;;
16093;SDS011;8151;47.824;12.092;2022-07-04T08:06:50;2.10;;;1.43;;
16093;SDS011;8151;47.824;12.092;2022-07-04T08:09:39;1.60;;;1.10;;
16093;SDS011;8151;47.824;12.092;2022-07-04T08:12:08;2.57;;;1.40;;
16093;SDS011;8151;47.824;12.092;2022-07-04T08:14:37;2.10;;;1.20;;
16093;SDS011;8151;47.824;12.092;2022-07-04T08:17:06;3.20;;;1.20;;
16093;SDS011;8151;47.824;12.092;2022-07-04T08:19:36;2.63;;;1.33;;
16093;SDS011;8151;47.824;12.092;2022-07-04T08:22:04;1.33;;;1.20;;
16093;SDS011;8151;47.824;12.092;2022-07-04T08:24:42;1.73;;;1.20;;
16093;SDS011;8151;47.824;12.092;2022-07-04T08:27:12;2.27;;;1.40;;
16093;SDS011;8151;47.824;12.092;2022-07-04T08:29:41;0.97;;;0.97;;
16093;SDS011;8151;47.824;12.092;2022-07-04T08:32:10;1.27;;;1.17;;
16093;SDS011;8151;47.824;12.092;2022-07-04T08:34:41;2.47;;;1.20;;
16093;SDS011;8151;47.824;12.092;2022-07-04T08:37:10;2.63;;;1.00;;
16093;SDS011;8151;47.824;12.092;2022-07-04T08:39:39;1.73;;;1.33;;
16093;SDS011;8151;47.824;12.092;2022-07-04T08:42:09;2.13;;;1.23;;
16093;SDS011;8151;47.824;12.092;2022-07-04T08:44:48;3.70;;;1.30;;
16093;SDS011;8151;47.824;12.092;2022-07-04T08:47:18;1.43;;;1.20;;
16093;SDS011;8151;47.824;12.092;2022-07-04T08:49:53;1.43;;;1.27;;
16093;SDS011;8151;47.824;12.092;2022-07-04T08:52:30;4.13;;;1.23;;
16093;SDS011;8151;47.824;12.092;2022-07-04T08:55:04;4.13;;;1.67;;
16093;SDS011;8151;47.824;12.092;2022-07-04T08:57:51;1.93;;;1.20;;
16093;SDS011;8151;47.824;12.092;2022-07-04T09:00:38;3.30;;;1.80;;
16093;SDS011;8151;47.824;12.092;2022-07-04T09:03:08;2.70;;;2.00;;
16093;SDS011;8151;47.824;12.092;2022-07-04T09:05:39;2.20;;;2.00;;
16093;SDS011;8151;47.824;12.092;2022-07-04T09:08:08;2.67;;;2.03;;
16093;SDS011;8151;47.824;12.092;2022-07-04T09:10:36;2.30;;;1.60;;
16093;SDS011;8151;47.824;12.092;2022-07-04T09:13:06;2.30;;;1.80;;
16093;SDS011;8151;47.824;12.092;2022-07-04T09:15:38;2.87;;;2.10;;
16093;SDS011;8151;47.824;12.092;2022-07-04T09:18:18;2.67;;;1.63;;
16093;SDS011;8151;47.824;12.092;2022-07-04T09:20:50;2.30;;;2.10;;
16093;SDS011;8151;47.824;12.092;2022-07-04T09:23:19;10.23;;;4.37;;
16093;SDS011;8151;47.824;12.092;2022-07-04T09:26:05;16.10;;;8.03;;
16093;SDS011;8151;47.824;12.092;2022-07-04T09:28:39;4.03;;;2.83;;
16093;SDS011;8151;47.824;12.092;2022-07-04T09:31:15;1.83;;;1.67;;
16093;SDS011;8151;47.824;12.092;2022-07-04T09:33:45;1.80;;;1.70;;
16093;SDS011;8151;47.824;12.092;2022-07-04T09:36:23;7.07;;;2.43;;
16093;SDS011;8151;47.824;12.092;2022-07-04T09:39:12;3.00;;;2.10;;
16093;SDS011;8151;47.824;12.092;2022-07-04T09:41:55;2.90;;;2.43;;
16093;SDS011;8151;47.824;12.092;2022-07-04T09:44:26;2.63;;;1.80;;
16093;SDS011;8151;47.824;12.092;2022-07-04T09:46:56;2.07;;;1.40;;
16093;SDS011;8151;47.824;12.092;2022-07-04T09:49:25;2.70;;;1.73;;
16093;SDS011;8151;47.824;12.092;2022-07-04T09:51:55;2.57;;;1.50;;
16093;SDS011;8151;47.824;12.092;2022-07-04T09:54:24;1.93;;;1.73;;
16093;SDS011;8151;47.824;12.092;2022-07-04T09:56:59;2.43;;;1.60;;
16093;SDS011;8151;47.824;12.092;2022-07-04T09:59:29;3.03;;;1.67;;
16093;SDS011;8151;47.824;12.092;2022-07-04T10:02:05;2.43;;;2.10;;
16093;SDS011;8151;47.824;12.092;2022-07-04T10:04:41;3.90;;;2.45;;
16093;SDS011;8151;47.824;12.092;2022-07-04T10:07:11;1.95;;;1.70;;
16093;SDS011;8151;47.824;12.092;2022-07-04T10:09:58;6.43;;;4.55;;
16093;SDS011;8151;47.824;12.092;2022-07-04T10:12:30;7.88;;;7.07;;
16093;SDS011;8151;47.824;12.092;2022-07-04T10:14:59;8.07;;;4.38;;
16093;SDS011;8151;47.824;12.092;2022-07-04T10:17:27;5.22;;;3.10;;
16093;SDS011;8151;47.824;12.092;2022-07-04T10:19:56;3.70;;;2.60;;
16093;SDS011;8151;47.824;12.092;2022-07-04T10:22:27;2.50;;;2.30;;
16093;SDS011;8151;47.824;12.092;2022-07-04T10:24:56;2.60;;;2.40;;
16093;SDS011;8151;47.824;12.092;2022-07-04T10:27:24;4.35;;;2.10;;
16093;SDS011;8151;47.824;12.092;2022-07-04T10:29:53;4.13;;;2.30;;
16093;SDS011;8151;47.824;12.092;2022-07-04T10:32:22;4.38;;;3.08;;
16093;SDS011;8151;47.824;12.092;2022-07-04T10:34:50;3.00;;;2.25;;
16093;SDS011;8151;47.824;12.092;2022-07-04T10:37:19;2.23;;;2.07;;
16093;SDS011;8151;47.824;12.092;2022-07-04T10:39:49;2.70;;;2.20;;
16093;SDS011;8151;47.824;12.092;2022-07-04T10:42:24;6.43;;;2.80;;
16093;SDS011;8151;47.824;12.092;2022-07-04T10:44:59;3.97;;;2.47;;
16093;SDS011;8151;47.824;12.092;2022-07-04T10:47:29;2.53;;;2.20;;
16093;SDS011;8151;47.824;12.092;2022-07-04T10:49:58;2.20;;;2.00;;
16093;SDS011;8151;47.824;12.092;2022-07-04T10:52:26;3.38;;;2.20;;
16093;SDS011;8151;47.824;12.092;2022-07-04T10:54:56;4.55;;;2.03;;
16093;SDS011;8151;47.824;12.092;2022-07-04T10:57:38;6.30;;;2.17;;
16093;SDS011;8151;47.824;12.092;2022-07-04T11:00:08;3.35;;;2.22;;
16093;SDS011;8151;47.824;12.092;2022-07-04T11:02:37;3.35;;;2.08;;
16093;SDS011;8151;47.824;12.092;2022-07-04T11:05:07;2.85;;;2.10;;
16093;SDS011;8151;47.824;12.092;2022-07-04T11:07:55;2.80;;;2.30;;
16093;SDS011;8151;47.824;12.092;2022-07-04T11:10:31;2.30;;;2.10;;
16093;SDS011;8151;47.824;12.092;2022-07-04T11:13:05;3.40;;;2.97;;
16093;SDS011;8151;47.824;12.092;2022-07-04T11:18:27;3.53;;;2.42;;
16093;SDS011;8151;47.824;12.092;2022-07-04T11:20:57;2.60;;;2.40;;
16093;SDS011;8151;47.824;12.092;2022-07-04T11:23:25;2.15;;;1.88;;
16093;SDS011;8151;47.824;12.092;2022-07-04T11:25:55;3.80;;;2.35;;
16093;SDS011;8151;47.824;12.092;2022-07-04T11:28:25;3.05;;;2.17;;
16093;SDS011;8151;47.824;12.092;2022-07-04T11:31:13;3.97;;;2.22;;
16093;SDS011;8151;47.824;12.092;2022-07-04T11:33:42;1.90;;;1.70;;
16093;SDS011;8151;47.824;12.092;2022-07-04T11:36:13;4.90;;;1.80;;
16093;SDS011;8151;47.824;12.092;2022-07-04T11:38:45;3.25;;;1.90;;
16093;SDS011;8151;47.824;12.092;2022-07-04T11:41:24;3.15;;;1.80;;
16093;SDS011;8151;47.824;12.092;2022-07-04T11:44:13;2.50;;;1.60;;
16093;SDS011;8151;47.824;12.092;2022-07-04T11:47:01;1.85;;;1.75;;
16093;SDS011;8151;47.824;12.092;2022-07-04T11:49:43;1.73;;;1.63;;
16093;SDS011;8151;47.824;12.092;2022-07-04T11:52:14;2.10;;;1.90;;
16093;SDS011;8151;47.824;12.092;2022-07-04T11:55:02;2.45;;;1.90;;
16093;SDS011;8151;47.824;12.092;2022-07-04T11:57:34;2.47;;;2.28;;
16093;SDS011;8151;47.824;12.092;2022-07-04T12:00:04;1.90;;;1.65;;
16093;SDS011;8151;47.824;12.092;2022-07-04T12:02:42;2.20;;;1.73;;
16093;SDS011;8151;47.824;12.092;2022-07-04T12:05:13;2.10;;;1.90;;
16093;SDS011;8151;47.824;12.092;2022-07-04T12:07:42;3.45;;;1.80;;
16093;SDS011;8151;47.824;12.092;2022-07-04T12:10:34;2.03;;;1.83;;
16093;SDS011;8151;47.824;12.092;2022-07-04T12:13:04;1.90;;;1.70;;
16093;SDS011;8151;47.824;12.092;2022-07-04T12:15:36;4.68;;;1.80;;
16093;SDS011;8151;47.824;12.092;2022-07-04T12:18:13;2.00;;;1.80;;
16093;SDS011;8151;47.824;12.092;2022-07-04T12:20:44;7.57;;;2.40;;
16093;SDS011;8151;47.824;12.092;2022-07-04T12:23:13;4.07;;;2.13;;
16093;SDS011;8151;47.824;12.092;2022-07-04T12:25:43;2.45;;;2.00;;
16093;SDS011;8151;47.824;12.092;2022-07-04T12:28:16;1.90;;;1.80;;
16093;SDS011;8151;47.824;12.092;2022-07-04T12:30:49;5.15;;;1.90;;
16093;SDS011;8151;47.824;12.092;2022-07-04T12:33:19;4.93;;;2.60;;
16093;SDS011;8151;47.824;12.092;2022-07-04T12:35:49;2.45;;;2.22;;
16093;SDS011;8151;47.824;12.092;2022-07-04T12:38:19;2.05;;;1.80;;
16093;SDS011;8151;47.824;12.092;2022-07-04T12:40:53;3.92;;;2.13;;
16093;SDS011;8151;47.824;12.092;2022-07-04T12:43:26;1.85;;;1.65;;
16093;SDS011;8151;47.824;12.092;2022-07-04T12:46:13;2.10;;;1.60;;
16093;SDS011;8151;47.824;12.092;2022-07-04T12:48:53;8.55;;;2.03;;
16093;SDS011;8151;47.824;12.092;2022-07-04T12:51:23;2.28;;;1.50;;
16093;SDS011;8151;47.824;12.092;2022-07-04T12:53:53;1.88;;;1.73;;
16093;SDS011;8151;47.824;12.092;2022-07-04T12:56:29;3.55;;;1.60;;
16093;SDS011;8151;47.824;12.092;2022-07-04T12:59:01;1.73;;;1.63;;
16093;SDS011;8151;47.824;12.092;2022-07-04T13:01:38;3.00;;;1.95;;
16093;SDS011;8151;47.824;12.092;2022-07-04T13:04:07;1.83;;;1.50;;
16093;SDS011;8151;47.824;12.092;2022-07-04T13:06:37;1.83;;;1.70;;
16093;SDS011;8151;47.824;12.092;2022-07-04T13:09:06;1.80;;;1.60;;
16093;SDS011;8151;47.824;12.092;2022-07-04T13:11:35;3.28;;;1.70;;
16093;SDS011;8151;47.824;12.092;2022-07-04T13:14:23;2.90;;;1.58;;
16093;SDS011;8151;47.824;12.092;2022-07-04T13:16:52;2.15;;;1.73;;
16093;SDS011;8151;47.824;12.092;2022-07-04T13:19:21;3.05;;;1.52;;
16093;SDS011;8151;47.824;12.092;2022-07-04T13:21:49;1.80;;;1.65;;
16093;SDS011;8151;47.824;12.092;2022-07-04T13:24:18;2.42;;;1.38;;
16093;SDS011;8151;47.824;12.092;2022-07-04T13:26:48;1.85;;;1.58;;
16093;SDS011;8151;47.824;12.092;2022-07-04T13:29:16;2.72;;;1.52;;
16093;SDS011;8151;47.824;12.092;2022-07-04T13:31:46;2.75;;;1.60;;
16093;SDS011;8151;47.824;12.092;2022-07-04T13:34:15;1.58;;;1.48;;
16093;SDS011;8151;47.824;12.092;2022-07-04T13:36:43;1.60;;;1.50;;
16093;SDS011;8151;47.824;12.092;2022-07-04T13:39:13;3.47;;;1.75;;
16093;SDS011;8151;47.824;12.092;2022-07-04T13:42:03;1.98;;;1.80;;
16093;SDS011;8151;47.824;12.092;2022-07-04T13:44:32;3.50;;;1.90;;
16093;SDS011;8151;47.824;12.092;2022-07-04T13:47:04;1.92;;;1.83;;
16093;SDS011;8151;47.824;12.092;2022-07-04T13:49:33;1.80;;;1.70;;
16093;SDS011;8151;47.824;12.092;2022-07-04T13:52:01;3.47;;;1.83;;
16093;SDS011;8151;47.824;12.092;2022-07-04T13:54:30;1.65;;;1.55;;
16093;SDS011;8151;47.824;12.092;2022-07-04T13:56:59;3.25;;;2.53;;
16093;SDS011;8151;47.824;12.092;2022-07-04T13:59:27;1.90;;;1.80;;
16093;SDS011;8151;47.824;12.092;2022-07-04T14:01:56;1.65;;;1.55;;
16093;SDS011;8151;47.824;12.092;2022-07-04T14:04:26;3.47;;;1.80;;
16093;SDS011;8151;47.824;12.092;2022-07-04T14:06:55;1.73;;;1.63;;
16093;SDS011;8151;47.824;12.092;2022-07-04T14:09:23;2.05;;;1.85;;
16093;SDS011;8151;47.824;12.092;2022-07-04T14:11:52;1.70;;;1.60;;
16093;SDS011;8151;47.824;12.092;2022-07-04T14:14:20;1.70;;;1.60;;
16093;SDS011;8151;47.824;12.092;2022-07-04T14:16:49;2.63;;;1.67;;
16093;SDS011;8151;47.824;12.092;2022-07-04T14:19:18;2.28;;;1.80;;
16093;SDS011;8151;47.824;12.092;2022-07-04T14:21:47;1.80;;;1.70;;
16093;SDS011;8151;47.824;12.092;2022-07-04T14:24:18;1.77;;;1.63;;
16093;SDS011;8151;47.824;12.092;2022-07-04T14:26:51;3.05;;;1.58;;
16093;SDS011;8151;47.824;12.092;2022-07-04T14:29:20;2.15;;;1.65;;
16093;SDS011;8151;47.824;12.092;2022-07-04T14:31:49;1.60;;;1.50;;
16093;SDS011;8151;47.824;12.092;2022-07-04T14:34:18;2.20;;;1.40;;
16093;SDS011;8151;47.824;12.092;2022-07-04T14:36:48;2.08;;;1.65;;
16093;SDS011;8151;47.824;12.092;2022-07-04T14:39:17;1.52;;;1.42;;
16093;SDS011;8151;47.824;12.092;2022-07-04T14:41:46;1.70;;;1.60;;
16093;SDS011;8151;47.824;12.092;2022-07-04T14:44:16;1.75;;;1.50;;
16093;SDS011;8151;47.824;12.092;2022-07-04T14:46:45;1.48;;;1.38;;
16093;SDS011;8151;47.824;12.092;2022-07-04T14:49:14;2.40;;;1.67;;
16093;SDS011;8151;47.824;12.092;2022-07-04T14:51:42;3.25;;;2.42;;
16093;SDS011;8151;47.824;12.092;2022-07-04T14:54:12;1.75;;;1.65;;
16093;SDS011;8151;47.824;12.092;2022-07-04T14:56:41;2.70;;;1.60;;
16093;SDS011;8151;47.824;12.092;2022-07-04T14:59:10;1.40;;;1.30;;
16093;SDS011;8151;47.824;12.092;2022-07-04T15:01:38;1.27;;;1.17;;
16093;SDS011;8151;47.824;12.092;2022-07-04T15:04:07;2.90;;;2.05;;
16093;SDS011;8151;47.824;12.092;2022-07-04T15:06:36;3.03;;;2.72;;
16093;SDS011;8151;47.824;12.092;2022-07-04T15:09:05;2.05;;;1.85;;
16093;SDS011;8151;47.824;12.092;2022-07-04T15:11:35;4.57;;;1.77;;